Wetterstation Vordersexau
Wetterdaten: Woche 26.11.12 - 02.12.12 (KW48)
Datum Zeit Temp. A. Feuchte A. Luftdruck Regen Wind Richtung Taupunkt Windchill Windben
26.11.2012 00:00 7,4 C 85 % 1012,8 hPa 0,0 l/m 0,0 km/h SO 5,0 C 7,4 C 0,0 km/h
26.11.2012 01:00 7,8 C 85 % 1011,8 hPa 0,0 l/m 0,0 km/h SO 5,4 C 7,8 C 0,0 km/h
26.11.2012 02:00 7,6 C 86 % 1011,4 hPa 0,0 l/m 0,0 km/h SO 5,4 C 7,6 C 0,0 km/h
26.11.2012 03:00 7,6 C 85 % 1010,6 hPa 0,4 l/m 0,0 km/h O-NO 5,2 C 7,6 C 0,0 km/h
26.11.2012 04:00 7,5 C 84 % 1010,5 hPa 1,1 l/m 0,0 km/h O-SO 5,0 C 7,5 C 0,0 km/h
26.11.2012 05:00 7,5 C 83 % 1009,9 hPa 1,1 l/m 0,0 km/h SO 4,8 C 7,5 C 0,0 km/h
26.11.2012 06:00 8,2 C 80 % 1009,0 hPa 0,4 l/m 0,0 km/h S-SO 5,0 C 8,2 C 0,0 km/h
26.11.2012 07:00 9,1 C 77 % 1008,3 hPa 0,7 l/m 5,2 km/h NO 5,3 C 9,1 C 2,9 km/h
26.11.2012 08:00 9,3 C 75 % 1008,0 hPa 0,7 l/m 0,0 km/h O-NO 5,1 C 9,3 C 0,0 km/h
26.11.2012 09:00 9,9 C 74 % 1007,8 hPa 0,0 l/m 0,0 km/h NO 5,5 C 9,9 C 0,0 km/h
26.11.2012 10:00 10,2 C 74 % 1007,6 hPa 0,4 l/m 0,0 km/h NO 5,8 C 10,2 C 0,0 km/h
26.11.2012 11:00 11,2 C 75 % 1007,5 hPa 0,0 l/m 0,0 km/h N 6,9 C 11,2 C 0,0 km/h
26.11.2012 12:00 11,9 C 78 % 1006,7 hPa 0,4 l/m 0,0 km/h O-SO 8,2 C 11,9 C 0,0 km/h
26.11.2012 13:00 12,0 C 80 % 1006,1 hPa 0,0 l/m 0,0 km/h SO 8,7 C 12,0 C 0,0 km/h
26.11.2012 14:00 12,1 C 82 % 1004,9 hPa 0,4 l/m 0,0 km/h O-SO 9,1 C 12,1 C 0,0 km/h
26.11.2012 15:00 11,7 C 82 % 1004,2 hPa 0,0 l/m 0,0 km/h W 8,7 C 11,7 C 0,0 km/h
26.11.2012 16:00 12,1 C 86 % 1004,5 hPa 0,0 l/m 16,2 km/h W 9,8 C 7,2 C 9,0 km/h
26.11.2012 17:00 11,1 C 85 % 1004,9 hPa 0,4 l/m 0,0 km/h W-SW 8,7 C 11,1 C 0,0 km/h
26.11.2012 18:00 10,6 C 82 % 1005,2 hPa 0,4 l/m 13,0 km/h W 7,7 C 6,7 C 7,2 km/h
26.11.2012 19:00 9,6 C 81 % 1005,8 hPa 1,1 l/m 2,6 km/h W-NW 6,5 C 9,6 C 1,4 km/h
26.11.2012 20:00 8,9 C 81 % 1005,8 hPa 0,7 l/m 0,0 km/h W-SW 5,8 C 8,9 C 0,0 km/h
26.11.2012 21:00 8,6 C 80 % 1006,2 hPa 0,0 l/m 18,8 km/h W 5,3 C 1,9 C 10,4 km/h
26.11.2012 22:00 7,9 C 82 % 1006,6 hPa 0,4 l/m 7,8 km/h W 5,0 C 6,8 C 4,3 km/h
26.11.2012 23:00 7,5 C 81 % 1006,6 hPa 0,4 l/m 6,5 km/h SW 4,5 C 7,4 C 3,6 km/h
27.11.2012 00:00 7,2 C 82 % 1006,5 hPa 0,0 l/m 5,8 km/h S-SW 4,3 C 7,2 C 3,2 km/h
27.11.2012 01:00 6,9 C 82 % 1006,0 hPa 0,4 l/m 21,4 km/h S 4,0 C -1,2 C 11,9 km/h
27.11.2012 02:00 6,8 C 82 % 1005,5 hPa 0,4 l/m 7,1 km/h S-SO 3,9 C 6,2 C 4,0 km/h
27.11.2012 03:00 6,5 C 82 % 1005,0 hPa 0,0 l/m 0,0 km/h S-SO 3,7 C 6,5 C 0,0 km/h
27.11.2012 04:00 6,3 C 83 % 1005,0 hPa 0,4 l/m 0,0 km/h SO 3,6 C 6,3 C 0,0 km/h
27.11.2012 05:00 6,1 C 82 % 1004,7 hPa 0,4 l/m 0,6 km/h O-SO 3,3 C 6,1 C 0,4 km/h
27.11.2012 06:00 5,8 C 81 % 1004,8 hPa 0,4 l/m 0,0 km/h O-SO 2,8 C 5,8 C 0,0 km/h
27.11.2012 07:00 5,6 C 81 % 1005,0 hPa 0,4 l/m 0,0 km/h O-SO 2,6 C 5,6 C 0,0 km/h
27.11.2012 08:00 5,8 C 80 % 1005,0 hPa 0,7 l/m 0,0 km/h S-SO 2,6 C 5,8 C 0,0 km/h
27.11.2012 09:00 6,2 C 79 % 1005,2 hPa 0,0 l/m 0,0 km/h W 2,8 C 6,2 C 0,0 km/h
27.11.2012 10:00 7,0 C 80 % 1005,1 hPa 0,4 l/m 0,0 km/h W-NW 3,8 C 7,0 C 0,0 km/h
27.11.2012 11:00 6,9 C 85 % 1005,1 hPa 0,0 l/m 7,8 km/h W 4,6 C 5,8 C 4,3 km/h
27.11.2012 12:00 6,5 C 84 % 1004,9 hPa 0,4 l/m 1,3 km/h SW 4,0 C 6,5 C 0,7 km/h
27.11.2012 13:00 6,9 C 85 % 1004,5 hPa 0,4 l/m 0,0 km/h SW 4,6 C 6,9 C 0,0 km/h
27.11.2012 14:00 7,1 C 85 % 1004,0 hPa 0,7 l/m 0,0 km/h SW 4,8 C 7,1 C 0,0 km/h
27.11.2012 15:00 6,6 C 85 % 1003,4 hPa 0,0 l/m 0,0 km/h NW 4,3 C 6,6 C 0,0 km/h
27.11.2012 16:00 6,3 C 84 % 1003,8 hPa 0,4 l/m 0,0 km/h NW 3,8 C 6,3 C 0,0 km/h
27.11.2012 17:00 5,9 C 83 % 1003,6 hPa 0,4 l/m 0,0 km/h NW 3,2 C 5,9 C 0,0 km/h
27.11.2012 18:00 6,1 C 81 % 1003,6 hPa 0,4 l/m 0,0 km/h NW 3,1 C 6,1 C 0,0 km/h
27.11.2012 19:00 5,8 C 81 % 1003,5 hPa 0,4 l/m 0,0 km/h N-NW 2,8 C 5,8 C 0,0 km/h
27.11.2012 20:00 5,8 C 80 % 1003,6 hPa 0,7 l/m 0,0 km/h N-NW 2,6 C 5,8 C 0,0 km/h
27.11.2012 21:00 5,4 C 80 % 1003,1 hPa 0,0 l/m 0,0 km/h N-NW 2,2 C 5,4 C 0,0 km/h
27.11.2012 22:00 5,4 C 79 % 1003,3 hPa 0,4 l/m 0,0 km/h N-NW 2,1 C 5,4 C 0,0 km/h
27.11.2012 23:00 5,6 C 78 % 1003,1 hPa 0,0 l/m 0,0 km/h N-NW 2,1 C 5,6 C 0,0 km/h
28.11.2012 00:00 5,6 C 77 % 1002,7 hPa 0,0 l/m 0,0 km/h N-NW 1,9 C 5,6 C 0,0 km/h
28.11.2012 01:00 5,6 C 77 % 1002,2 hPa 0,0 l/m 0,0 km/h NW 1,9 C 5,6 C 0,0 km/h
28.11.2012 02:00 5,6 C 76 % 1002,0 hPa 0,0 l/m 0,0 km/h NW 1,7 C 5,6 C 0,0 km/h
28.11.2012 03:00 5,6 C 75 % 1001,8 hPa 0,4 l/m 0,0 km/h N-NW 1,5 C 5,6 C 0,0 km/h
28.11.2012 04:00 5,5 C 75 % 1000,5 hPa 0,0 l/m 0,0 km/h N-NW 1,4 C 5,5 C 0,0 km/h
28.11.2012 05:00 5,6 C 74 % 1000,8 hPa 0,0 l/m 0,0 km/h N-NO 1,3 C 5,6 C 0,0 km/h
28.11.2012 06:00 5,8 C 74 % 1000,4 hPa 0,4 l/m 0,0 km/h NO 1,5 C 5,8 C 0,0 km/h
28.11.2012 07:00 5,8 C 74 % 1000,3 hPa 0,0 l/m 0,0 km/h NO 1,5 C 5,8 C 0,0 km/h
28.11.2012 08:00 5,6 C 73 % 1000,1 hPa 0,7 l/m 0,0 km/h NO 1,2 C 5,6 C 0,0 km/h
28.11.2012 09:00 5,9 C 73 % 1000,0 hPa 0,0 l/m 0,0 km/h NO 1,4 C 5,9 C 0,0 km/h
28.11.2012 10:00 6,4 C 73 % 999,6 hPa 0,4 l/m 0,0 km/h NO 1,9 C 6,4 C 0,0 km/h
28.11.2012 11:00 6,7 C 74 % 999,2 hPa 0,4 l/m 0,0 km/h NO 2,4 C 6,7 C 0,0 km/h
28.11.2012 12:00 6,7 C 76 % 998,4 hPa 0,0 l/m 0,0 km/h NO 2,8 C 6,7 C 0,0 km/h
28.11.2012 13:00 6,8 C 78 % 997,7 hPa 0,7 l/m 0,0 km/h S 3,2 C 6,8 C 0,0 km/h
28.11.2012 14:00 6,4 C 79 % 997,3 hPa 0,4 l/m 0,0 km/h S 3,0 C 6,4 C 0,0 km/h
28.11.2012 15:00 5,9 C 80 % 996,8 hPa 1,1 l/m 0,0 km/h O-SO 2,7 C 5,9 C 0,0 km/h
28.11.2012 16:00 5,4 C 81 % 996,7 hPa 0,7 l/m 0,0 km/h O-SO 2,4 C 5,4 C 0,0 km/h
28.11.2012 17:00 5,1 C 80 % 996,4 hPa 0,4 l/m 0,0 km/h O-SO 1,9 C 5,1 C 0,0 km/h
28.11.2012 18:00 4,9 C 80 % 996,0 hPa 0,4 l/m 0,0 km/h S-SO 1,7 C 4,9 C 0,0 km/h
28.11.2012 19:00 4,9 C 79 % 996,0 hPa 0,7 l/m 0,0 km/h S-SO 1,6 C 4,9 C 0,0 km/h
28.11.2012 20:00 4,9 C 78 % 995,5 hPa 0,4 l/m 0,0 km/h S-SO 1,4 C 4,9 C 0,0 km/h
28.11.2012 21:00 4,8 C 78 % 995,2 hPa 0,7 l/m 0,0 km/h S-SO 1,3 C 4,8 C 0,0 km/h
28.11.2012 22:00 4,7 C 77 % 995,2 hPa 0,4 l/m 0,0 km/h S-SO 1,0 C 4,7 C 0,0 km/h
28.11.2012 23:00 4,7 C 76 % 995,3 hPa 0,4 l/m 0,0 km/h S-SO 0,8 C 4,7 C 0,0 km/h
29.11.2012 00:00 4,8 C 75 % 994,7 hPa 0,7 l/m 0,0 km/h S-SO 0,8 C 4,8 C 0,0 km/h
29.11.2012 01:00 4,4 C 75 % 994,7 hPa 0,7 l/m 0,0 km/h NO 0,4 C 4,4 C 0,0 km/h
29.11.2012 02:00 4,4 C 75 % 994,5 hPa 0,4 l/m 0,0 km/h NO 0,4 C 4,4 C 0,0 km/h
29.11.2012 03:00 4,2 C 77 % 994,8 hPa 1,1 l/m 3,9 km/h NO 0,5 C 4,2 C 2,2 km/h
29.11.2012 04:00 3,6 C 80 % 995,4 hPa 0,7 l/m 0,0 km/h NO 0,5 C 3,6 C 0,0 km/h
29.11.2012 05:00 3,2 C 80 % 996,1 hPa 0,7 l/m 0,0 km/h NO 0,1 C 3,2 C 0,0 km/h
29.11.2012 06:00 3,1 C 80 % 996,8 hPa 0,7 l/m 0,0 km/h NO -0,0 C 3,1 C 0,0 km/h
29.11.2012 07:00 2,8 C 81 % 997,7 hPa 1,1 l/m 0,0 km/h SO -0,1 C 2,8 C 0,0 km/h
29.11.2012 08:00 2,3 C 81 % 998,5 hPa 0,7 l/m 9,7 km/h SO -0,6 C -0,7 C 5,4 km/h
29.11.2012 09:00 2,1 C 79 % 999,3 hPa 1,4 l/m 1,9 km/h SO -1,2 C 2,1 C 1,1 km/h
29.11.2012 10:00 2,5 C 78 % 999,6 hPa 0,4 l/m 0,0 km/h S-SO -0,9 C 2,5 C 0,0 km/h
29.11.2012 11:00 3,4 C 75 % 999,9 hPa 0,0 l/m 0,0 km/h S-SO -0,6 C 3,4 C 0,0 km/h
29.11.2012 12:00 4,4 C 78 % 1000,1 hPa 0,0 l/m 0,0 km/h NO 0,9 C 4,4 C 0,0 km/h
29.11.2012 13:00 4,9 C 84 % 1000,5 hPa 0,0 l/m 0,0 km/h NO 2,4 C 4,9 C 0,0 km/h
29.11.2012 14:00 5,3 C 81 % 1000,7 hPa 0,0 l/m 0,0 km/h NO 2,3 C 5,3 C 0,0 km/h
29.11.2012 15:00 4,3 C 80 % 1001,4 hPa 0,0 l/m 0,0 km/h O-SO 1,2 C 4,3 C 0,0 km/h
29.11.2012 16:00 2,8 C 84 % 1001,9 hPa 0,0 l/m 0,0 km/h SO 0,4 C 2,8 C 0,0 km/h
29.11.2012 17:00 1,9 C 87 % 1002,1 hPa 0,0 l/m 0,0 km/h SO -0,0 C 1,9 C 0,0 km/h
29.11.2012 18:00 1,8 C 87 % 1002,2 hPa 0,0 l/m 0,0 km/h SO -0,1 C 1,8 C 0,0 km/h
29.11.2012 19:00 1,9 C 86 % 1002,2 hPa 0,0 l/m 0,0 km/h SO -0,2 C 1,9 C 0,0 km/h
29.11.2012 20:00 2,1 C 86 % 1002,5 hPa 0,0 l/m 0,0 km/h SO 0,0 C 2,1 C 0,0 km/h
29.11.2012 21:00 2,1 C 85 % 1002,8 hPa 0,0 l/m 0,0 km/h O-SO -0,2 C 2,1 C 0,0 km/h
29.11.2012 22:00 2,2 C 85 % 1003,0 hPa 0,0 l/m 0,0 km/h O-SO -0,1 C 2,2 C 0,0 km/h
29.11.2012 23:00 2,1 C 85 % 1003,2 hPa 0,0 l/m 0,0 km/h O-SO -0,2 C 2,1 C 0,0 km/h
30.11.2012 00:00 2,1 C 84 % 1003,4 hPa 0,0 l/m 0,0 km/h O-SO -0,3 C 2,1 C 0,0 km/h
30.11.2012 01:00 2,1 C 83 % 1003,3 hPa 0,0 l/m 0,0 km/h NW -0,5 C 2,1 C 0,0 km/h
30.11.2012 02:00 1,8 C 83 % 1003,4 hPa 0,0 l/m 1,9 km/h NW -0,8 C 1,8 C 1,1 km/h
30.11.2012 03:00 1,9 C 82 % 1003,4 hPa 0,0 l/m 0,0 km/h NW -0,8 C 1,9 C 0,0 km/h
30.11.2012 04:00 1,9 C 82 % 1003,8 hPa 0,4 l/m 0,0 km/h NW -0,8 C 1,9 C 0,0 km/h
30.11.2012 05:00 1,8 C 83 % 1003,7 hPa 0,0 l/m 0,0 km/h NW -0,8 C 1,8 C 0,0 km/h
30.11.2012 06:00 1,0 C 84 % 1004,3 hPa 0,0 l/m 0,0 km/h NW -1,4 C 1,0 C 0,0 km/h
30.11.2012 07:00 0,5 C 83 % 1004,6 hPa 0,0 l/m 0,0 km/h NW -2,0 C 0,5 C 0,0 km/h
30.11.2012 08:00 0,9 C 82 % 1005,1 hPa 0,0 l/m 0,0 km/h O-SO -1,8 C 0,9 C 0,0 km/h
30.11.2012 09:00 2,2 C 81 % 1005,5 hPa 0,0 l/m 0,0 km/h O-NO -0,7 C 2,2 C 0,0 km/h
30.11.2012 10:00 5,0 C 80 % 1006,2 hPa 0,0 l/m 0,0 km/h NO 1,8 C 5,0 C 0,0 km/h
30.11.2012 11:00 3,8 C 85 % 1006,3 hPa 0,0 l/m 0,0 km/h NO 1,5 C 3,8 C 0,0 km/h
30.11.2012 12:00 3,9 C 85 % 1006,3 hPa 0,0 l/m 0,0 km/h NO 1,6 C 3,9 C 0,0 km/h
30.11.2012 13:00 4,1 C 83 % 1006,3 hPa 0,0 l/m 0,0 km/h O-NO 1,5 C 4,1 C 0,0 km/h
30.11.2012 14:00 3,6 C 80 % 1006,5 hPa 0,0 l/m 0,0 km/h NO 0,5 C 3,6 C 0,0 km/h
30.11.2012 15:00 3,6 C 80 % 1006,7 hPa 0,0 l/m 0,0 km/h O-NO 0,5 C 3,6 C 0,0 km/h
30.11.2012 16:00 2,6 C 83 % 1007,1 hPa 0,0 l/m 0,0 km/h O-NO 0,0 C 2,6 C 0,0 km/h
30.11.2012 17:00 1,9 C 86 % 1007,7 hPa 0,0 l/m 0,0 km/h O-NO -0,2 C 1,9 C 0,0 km/h
30.11.2012 18:00 1,9 C 86 % 1008,4 hPa 0,0 l/m 0,0 km/h O -0,2 C 1,9 C 0,0 km/h
30.11.2012 19:00 0,4 C 87 % 1008,5 hPa 0,0 l/m 0,0 km/h O-NO -1,5 C 0,4 C 0,0 km/h
30.11.2012 20:00 -0,4 C 87 % 1008,8 hPa 0,0 l/m 0,0 km/h SO -2,3 C -0,4 C 0,0 km/h
30.11.2012 21:00 -1,8 C 87 % 1009,0 hPa 0,0 l/m 0,0 km/h S-SO -3,7 C -1,8 C 0,0 km/h
30.11.2012 22:00 -2,6 C 87 % 1009,5 hPa 0,0 l/m 0,0 km/h S-SO -4,5 C -2,6 C 0,0 km/h
30.11.2012 23:00 -3,0 C 87 % 1009,8 hPa 0,0 l/m 0,0 km/h S-SO -4,9 C -3,0 C 0,0 km/h
01.12.2012 00:00 -2,9 C 87 % 1009,9 hPa 0,0 l/m 0,0 km/h O-NO -4,8 C -2,9 C 0,0 km/h
01.12.2012 01:00 -3,3 C 86 % 1010,0 hPa 0,0 l/m 0,0 km/h O-SO -5,3 C -3,3 C 0,0 km/h
01.12.2012 02:00 -3,5 C 86 % 1010,1 hPa 0,0 l/m 0,0 km/h O-SO -5,5 C -3,5 C 0,0 km/h
01.12.2012 03:00 -3,9 C 86 % 1010,1 hPa 0,0 l/m 0,0 km/h SO -5,9 C -3,9 C 0,0 km/h
01.12.2012 04:00 -3,9 C 87 % 1010,4 hPa 0,0 l/m 0,0 km/h O-SO -5,7 C -3,9 C 0,0 km/h
01.12.2012 05:00 -3,7 C 87 % 1010,5 hPa 0,0 l/m 0,0 km/h O -5,5 C -3,7 C 0,0 km/h
01.12.2012 06:00 -5,1 C 87 % 1010,9 hPa 0,0 l/m 0,0 km/h O -6,9 C -5,1 C 0,0 km/h
01.12.2012 07:00 -5,1 C 87 % 1011,3 hPa 0,0 l/m 0,0 km/h O -6,9 C -5,1 C 0,0 km/h
01.12.2012 08:00 -5,2 C 87 % 1011,4 hPa 0,0 l/m 0,0 km/h O -7,0 C -5,2 C 0,0 km/h
01.12.2012 09:00 0,9 C 82 % 1011,9 hPa 0,0 l/m 0,0 km/h N-NW -1,8 C 0,9 C 0,0 km/h
01.12.2012 10:00 4,1 C 84 % 1012,2 hPa 0,0 l/m 0,0 km/h W-NW 1,6 C 4,1 C 0,0 km/h
01.12.2012 11:00 5,1 C 75 % 1012,1 hPa 0,0 l/m 0,0 km/h W 1,0 C 5,1 C 0,0 km/h
01.12.2012 12:00 4,3 C 74 % 1012,0 hPa 0,0 l/m 0,0 km/h N-NW 0,1 C 4,3 C 0,0 km/h
01.12.2012 13:00 5,4 C 71 % 1011,7 hPa 0,0 l/m 0,0 km/h W 0,6 C 5,4 C 0,0 km/h
01.12.2012 14:00 3,1 C 74 % 1011,9 hPa 0,0 l/m 1,9 km/h W -1,1 C 3,1 C 1,1 km/h
01.12.2012 15:00 3,1 C 77 % 1012,1 hPa 0,0 l/m 1,9 km/h W -0,5 C 3,1 C 1,1 km/h
01.12.2012 16:00 0,1 C 81 % 1012,6 hPa 0,0 l/m 1,3 km/h W -2,8 C 0,1 C 0,7 km/h
01.12.2012 17:00 -0,9 C 85 % 1012,9 hPa 0,0 l/m 0,0 km/h N-NW -3,1 C -0,9 C 0,0 km/h
01.12.2012 18:00 -1,6 C 86 % 1012,8 hPa 0,0 l/m 0,0 km/h N-NW -3,6 C -1,6 C 0,0 km/h
01.12.2012 19:00 -1,3 C 87 % 1012,9 hPa 0,0 l/m 0,0 km/h N -3,2 C -1,3 C 0,0 km/h
01.12.2012 20:00 -1,6 C 87 % 1013,1 hPa 0,0 l/m 0,0 km/h N -3,5 C -1,6 C 0,0 km/h
01.12.2012 21:00 -2,9 C 87 % 1013,0 hPa 0,0 l/m 0,0 km/h N -4,8 C -2,9 C 0,0 km/h
01.12.2012 22:00 -3,5 C 87 % 1012,9 hPa 0,0 l/m 0,0 km/h O-NO -5,3 C -3,5 C 0,0 km/h
01.12.2012 23:00 -3,5 C 87 % 1013,1 hPa 0,0 l/m 0,0 km/h O-NO -5,3 C -3,5 C 0,0 km/h
02.12.2012 00:00 -3,2 C 87 % 1012,9 hPa 0,0 l/m 0,0 km/h O-NO -5,0 C -3,2 C 0,0 km/h
02.12.2012 01:00 -1,0 C 87 % 1012,4 hPa 0,0 l/m 2,6 km/h W-SW -2,9 C -1,0 C 1,4 km/h
02.12.2012 02:00 0,1 C 83 % 1012,0 hPa 0,0 l/m 18,8 km/h SW -2,4 C -8,9 C 10,4 km/h
02.12.2012 03:00 0,9 C 80 % 1011,6 hPa 0,0 l/m 21,4 km/h S-SW -2,2 C -9,1 C 11,9 km/h
02.12.2012 04:00 1,2 C 78 % 1010,9 hPa 0,0 l/m 27,2 km/h W -2,2 C -10,8 C 15,1 km/h
02.12.2012 05:00 0,9 C 81 % 1010,8 hPa 0,0 l/m 35,6 km/h W -2,0 C -13,6 C 19,8 km/h
02.12.2012 06:00 -0,1 C 86 % 1010,9 hPa 0,0 l/m 4,5 km/h W-SW -2,2 C -0,1 C 2,5 km/h
02.12.2012 07:00 -0,2 C 86 % 1011,0 hPa 0,0 l/m 4,5 km/h W-NW -2,3 C -0,2 C 2,5 km/h
02.12.2012 08:00 -0,1 C 87 % 1011,4 hPa 0,0 l/m 25,9 km/h NW -2,0 C -12,2 C 14,4 km/h
02.12.2012 09:00 -0,1 C 87 % 1012,1 hPa 0,0 l/m 5,2 km/h SW -2,0 C -0,1 C 2,9 km/h
02.12.2012 10:00 0,8 C 86 % 1012,0 hPa 0,0 l/m 1,9 km/h W -1,3 C 0,8 C 1,1 km/h
02.12.2012 11:00 2,2 C 82 % 1012,1 hPa 0,0 l/m 7,8 km/h W -0,5 C 0,8 C 4,3 km/h
02.12.2012 12:00 2,1 C 83 % 1012,0 hPa 0,0 l/m 1,3 km/h W-NW -0,5 C 2,1 C 0,7 km/h
02.12.2012 13:00 2,9 C 82 % 1012,1 hPa 0,0 l/m 11,0 km/h W 0,1 C -1,0 C 6,1 km/h
02.12.2012 14:00 2,1 C 82 % 1012,1 hPa 0,0 l/m 4,5 km/h W-SW -0,6 C 2,1 C 2,5 km/h
02.12.2012 15:00 1,9 C 83 % 1012,7 hPa 0,0 l/m 20,7 km/h W -0,7 C -7,5 C 11,5 km/h
02.12.2012 16:00 1,8 C 84 % 1012,8 hPa 0,0 l/m 2,6 km/h W -0,6 C 1,8 C 1,4 km/h
02.12.2012 17:00 1,5 C 85 % 1013,2 hPa 0,0 l/m 3,9 km/h W -0,7 C 1,5 C 2,2 km/h
02.12.2012 18:00 1,3 C 84 % 1014,0 hPa 0,0 l/m 1,3 km/h W -1,1 C 1,3 C 0,7 km/h
02.12.2012 19:00 1,0 C 85 % 1014,3 hPa 0,0 l/m 0,0 km/h SW -1,2 C 1,0 C 0,0 km/h
02.12.2012 20:00 1,1 C 85 % 1014,8 hPa 0,0 l/m 5,8 km/h W -1,1 C 1,1 C 3,2 km/h
02.12.2012 21:00 1,1 C 86 % 1015,4 hPa 0,0 l/m 1,3 km/h SW -1,0 C 1,1 C 0,7 km/h
02.12.2012 22:00 0,9 C 86 % 1015,6 hPa 0,0 l/m 4,5 km/h W-SW -1,2 C 0,9 C 2,5 km/h
02.12.2012 23:00 0,6 C 87 % 1016,0 hPa 0,0 l/m 5,8 km/h W -1,3 C 0,6 C 3,2 km/h
Min-Datum _ 01.12.12 01.12.12 29.11.12 - 26.11.12 - 01.12.12 02.12.12 26.11.12
_ Min-Zeit 08:19 13:19 02:19 - 00:19 - 08:19 05:19 00:19
Minimum _ -5,2 C 71 % 994,5 hPa - 0,0 km/h - -7,0 C -13,6 C 0,0 km/h
Max-Datum _ 26.11.12 29.11.12 02.12.12 29.11.12 02.12.12 - 26.11.12 26.11.12 02.12.12
_ Max-Zeit 14:19 17:19 23:19 09:19 05:19 - 16:19 14:19 05:19
Maximum _ 12,1 C 87 % 1016,0 hPa 1,4 l/m 35,6 km/h
W
- 9,8 C 12,1 C 19,8 km/h
W
Durchschnitt _ 3,7 C 82 % 1005,8 hPa #32,8 l/m 2,1 km/h NO 0,8 C 3,1 C 1,2 km/h
www.sexauwetter.de